sensor_id;sensor_type;location;lat;lon;timestamp;P1;durP1;ratioP1;P2;durP2;ratioP2
35667;SDS011;22158;59.280;17.806;2023-04-25T05:01:19;4.40;;;2.08;;
35667;SDS011;22158;59.280;17.806;2023-04-25T05:03:45;6.78;;;2.40;;
35667;SDS011;22158;59.280;17.806;2023-04-25T05:06:10;4.40;;;2.22;;
35667;SDS011;22158;59.280;17.806;2023-04-25T05:08:36;3.95;;;2.50;;
35667;SDS011;22158;59.280;17.806;2023-04-25T05:11:02;5.07;;;2.33;;
35667;SDS011;22158;59.280;17.806;2023-04-25T05:13:27;4.18;;;2.25;;
35667;SDS011;22158;59.280;17.806;2023-04-25T05:15:53;4.93;;;2.75;;
35667;SDS011;22158;59.280;17.806;2023-04-25T05:18:19;9.73;;;2.85;;
35667;SDS011;22158;59.280;17.806;2023-04-25T05:20:44;9.98;;;3.28;;
35667;SDS011;22158;59.280;17.806;2023-04-25T05:23:10;8.07;;;3.42;;
35667;SDS011;22158;59.280;17.806;2023-04-25T05:25:36;10.18;;;3.53;;
35667;SDS011;22158;59.280;17.806;2023-04-25T05:28:01;4.45;;;3.08;;
35667;SDS011;22158;59.280;17.806;2023-04-25T05:30:27;8.48;;;3.80;;
35667;SDS011;22158;59.280;17.806;2023-04-25T05:32:52;11.32;;;3.60;;
35667;SDS011;22158;59.280;17.806;2023-04-25T05:35:18;6.55;;;3.33;;
35667;SDS011;22158;59.280;17.806;2023-04-25T05:37:44;4.82;;;2.90;;
35667;SDS011;22158;59.280;17.806;2023-04-25T05:40:09;6.95;;;3.90;;
35667;SDS011;22158;59.280;17.806;2023-04-25T05:42:35;7.38;;;4.28;;
35667;SDS011;22158;59.280;17.806;2023-04-25T05:45:01;13.30;;;4.10;;
35667;SDS011;22158;59.280;17.806;2023-04-25T05:47:27;6.07;;;3.55;;
35667;SDS011;22158;59.280;17.806;2023-04-25T05:49:52;7.88;;;4.10;;
35667;SDS011;22158;59.280;17.806;2023-04-25T05:52:18;8.77;;;4.53;;
35667;SDS011;22158;59.280;17.806;2023-04-25T05:54:44;6.72;;;4.28;;
35667;SDS011;22158;59.280;17.806;2023-04-25T05:57:17;9.82;;;4.63;;
35667;SDS011;22158;59.280;17.806;2023-04-25T05:59:47;12.77;;;5.55;;
35667;SDS011;22158;59.280;17.806;2023-04-25T06:02:13;15.25;;;10.65;;
35667;SDS011;22158;59.280;17.806;2023-04-25T06:04:39;13.23;;;8.45;;
35667;SDS011;22158;59.280;17.806;2023-04-25T06:07:04;8.75;;;4.35;;
35667;SDS011;22158;59.280;17.806;2023-04-25T06:09:30;9.70;;;5.15;;
35667;SDS011;22158;59.280;17.806;2023-04-25T06:11:55;13.45;;;6.97;;
35667;SDS011;22158;59.280;17.806;2023-04-25T06:14:21;11.38;;;6.03;;
35667;SDS011;22158;59.280;17.806;2023-04-25T06:16:47;17.40;;;11.13;;
35667;SDS011;22158;59.280;17.806;2023-04-25T06:19:12;8.85;;;5.13;;
35667;SDS011;22158;59.280;17.806;2023-04-25T06:21:38;14.65;;;8.00;;
35667;SDS011;22158;59.280;17.806;2023-04-25T06:24:03;15.32;;;7.97;;
35667;SDS011;22158;59.280;17.806;2023-04-25T06:26:29;12.55;;;7.25;;
35667;SDS011;22158;59.280;17.806;2023-04-25T06:28:55;30.92;;;20.50;;
35667;SDS011;22158;59.280;17.806;2023-04-25T06:31:20;28.52;;;22.77;;
35667;SDS011;22158;59.280;17.806;2023-04-25T06:33:46;13.23;;;8.45;;
35667;SDS011;22158;59.280;17.806;2023-04-25T06:36:13;7.57;;;5.00;;
35667;SDS011;22158;59.280;17.806;2023-04-25T06:38:38;9.27;;;4.45;;
35667;SDS011;22158;59.280;17.806;2023-04-25T06:41:04;7.93;;;4.40;;
35667;SDS011;22158;59.280;17.806;2023-04-25T06:43:30;10.73;;;6.50;;
35667;SDS011;22158;59.280;17.806;2023-04-25T06:45:58;8.52;;;3.58;;
35667;SDS011;22158;59.280;17.806;2023-04-25T06:48:25;7.25;;;5.80;;
35667;SDS011;22158;59.280;17.806;2023-04-25T06:50:51;9.32;;;4.28;;
35667;SDS011;22158;59.280;17.806;2023-04-25T06:53:16;6.75;;;4.18;;
35667;SDS011;22158;59.280;17.806;2023-04-25T06:55:42;5.65;;;3.40;;
35667;SDS011;22158;59.280;17.806;2023-04-25T06:58:07;6.95;;;3.65;;
35667;SDS011;22158;59.280;17.806;2023-04-25T07:00:33;6.72;;;4.05;;
35667;SDS011;22158;59.280;17.806;2023-04-25T07:02:59;9.80;;;3.67;;
35667;SDS011;22158;59.280;17.806;2023-04-25T07:05:24;6.65;;;4.35;;
35667;SDS011;22158;59.280;17.806;2023-04-25T07:07:50;12.43;;;6.45;;
35667;SDS011;22158;59.280;17.806;2023-04-25T07:10:15;6.75;;;4.22;;
35667;SDS011;22158;59.280;17.806;2023-04-25T07:12:41;6.38;;;4.38;;
35667;SDS011;22158;59.280;17.806;2023-04-25T07:15:06;5.50;;;3.15;;
35667;SDS011;22158;59.280;17.806;2023-04-25T07:17:34;7.38;;;3.75;;
35667;SDS011;22158;59.280;17.806;2023-04-25T07:20:00;6.85;;;3.97;;
35667;SDS011;22158;59.280;17.806;2023-04-25T07:22:26;6.43;;;3.40;;
35667;SDS011;22158;59.280;17.806;2023-04-25T07:24:52;6.28;;;3.67;;
35667;SDS011;22158;59.280;17.806;2023-04-25T07:27:18;7.95;;;3.72;;
35667;SDS011;22158;59.280;17.806;2023-04-25T07:29:44;5.90;;;3.35;;
35667;SDS011;22158;59.280;17.806;2023-04-25T07:32:10;7.80;;;3.60;;
35667;SDS011;22158;59.280;17.806;2023-04-25T07:34:37;7.50;;;3.72;;
35667;SDS011;22158;59.280;17.806;2023-04-25T07:37:04;5.70;;;3.40;;
35667;SDS011;22158;59.280;17.806;2023-04-25T07:39:30;5.97;;;4.05;;
35667;SDS011;22158;59.280;17.806;2023-04-25T07:41:56;7.80;;;4.43;;
35667;SDS011;22158;59.280;17.806;2023-04-25T07:44:23;7.70;;;4.13;;
35667;SDS011;22158;59.280;17.806;2023-04-25T07:46:49;8.20;;;4.88;;
35667;SDS011;22158;59.280;17.806;2023-04-25T07:49:15;6.60;;;4.90;;
35667;SDS011;22158;59.280;17.806;2023-04-25T07:51:41;8.18;;;4.65;;
35667;SDS011;22158;59.280;17.806;2023-04-25T07:54:08;7.82;;;3.97;;
35667;SDS011;22158;59.280;17.806;2023-04-25T07:56:37;6.60;;;4.60;;
35667;SDS011;22158;59.280;17.806;2023-04-25T07:59:02;15.60;;;8.75;;
35667;SDS011;22158;59.280;17.806;2023-04-25T08:01:28;15.40;;;8.90;;
35667;SDS011;22158;59.280;17.806;2023-04-25T08:03:53;7.30;;;4.95;;
35667;SDS011;22158;59.280;17.806;2023-04-25T08:06:19;11.57;;;6.22;;
35667;SDS011;22158;59.280;17.806;2023-04-25T08:08:45;8.55;;;4.95;;
35667;SDS011;22158;59.280;17.806;2023-04-25T08:11:11;7.72;;;4.75;;
35667;SDS011;22158;59.280;17.806;2023-04-25T08:13:36;9.65;;;5.15;;
35667;SDS011;22158;59.280;17.806;2023-04-25T08:16:02;9.07;;;5.05;;
35667;SDS011;22158;59.280;17.806;2023-04-25T08:18:28;7.05;;;5.05;;
35667;SDS011;22158;59.280;17.806;2023-04-25T08:20:53;8.63;;;5.63;;
35667;SDS011;22158;59.280;17.806;2023-04-25T08:23:19;11.85;;;5.82;;
35667;SDS011;22158;59.280;17.806;2023-04-25T08:25:44;8.43;;;4.90;;
35667;SDS011;22158;59.280;17.806;2023-04-25T08:28:10;10.52;;;6.75;;
35667;SDS011;22158;59.280;17.806;2023-04-25T08:30:36;7.35;;;4.60;;
35667;SDS011;22158;59.280;17.806;2023-04-25T08:33:01;7.95;;;4.43;;
35667;SDS011;22158;59.280;17.806;2023-04-25T08:35:27;11.77;;;6.68;;
35667;SDS011;22158;59.280;17.806;2023-04-25T08:37:53;8.45;;;5.00;;
35667;SDS011;22158;59.280;17.806;2023-04-25T08:40:19;11.27;;;6.20;;
35667;SDS011;22158;59.280;17.806;2023-04-25T08:42:51;10.43;;;6.00;;
35667;SDS011;22158;59.280;17.806;2023-04-25T08:45:18;8.13;;;4.82;;
35667;SDS011;22158;59.280;17.806;2023-04-25T08:47:45;10.15;;;5.38;;
35667;SDS011;22158;59.280;17.806;2023-04-25T08:50:13;9.55;;;5.78;;
35667;SDS011;22158;59.280;17.806;2023-04-25T08:52:45;10.85;;;5.50;;
35667;SDS011;22158;59.280;17.806;2023-04-25T08:55:13;9.45;;;4.90;;
35667;SDS011;22158;59.280;17.806;2023-04-25T08:57:40;7.68;;;5.15;;
35667;SDS011;22158;59.280;17.806;2023-04-25T09:00:08;11.48;;;6.07;;
35667;SDS011;22158;59.280;17.806;2023-04-25T09:02:34;11.82;;;5.97;;
35667;SDS011;22158;59.280;17.806;2023-04-25T09:05:01;8.00;;;5.35;;
35667;SDS011;22158;59.280;17.806;2023-04-25T09:07:29;12.57;;;7.45;;
35667;SDS011;22158;59.280;17.806;2023-04-25T09:09:55;10.55;;;5.95;;
35667;SDS011;22158;59.280;17.806;2023-04-25T09:12:20;9.38;;;6.80;;
35667;SDS011;22158;59.280;17.806;2023-04-25T09:17:31;16.45;;;6.57;;
35667;SDS011;22158;59.280;17.806;2023-04-25T09:20:11;15.40;;;7.20;;
35667;SDS011;22158;59.280;17.806;2023-04-25T09:22:38;12.57;;;5.80;;
35667;SDS011;22158;59.280;17.806;2023-04-25T09:25:07;12.02;;;6.53;;
35667;SDS011;22158;59.280;17.806;2023-04-25T09:27:42;9.45;;;5.45;;
35667;SDS011;22158;59.280;17.806;2023-04-25T09:30:16;10.35;;;6.45;;
35667;SDS011;22158;59.280;17.806;2023-04-25T09:32:43;11.93;;;7.45;;
35667;SDS011;22158;59.280;17.806;2023-04-25T09:35:08;14.50;;;5.55;;
35667;SDS011;22158;59.280;17.806;2023-04-25T09:37:34;11.85;;;6.88;;
35667;SDS011;22158;59.280;17.806;2023-04-25T09:40:00;9.68;;;6.15;;
35667;SDS011;22158;59.280;17.806;2023-04-25T09:42:31;9.95;;;6.10;;
35667;SDS011;22158;59.280;17.806;2023-04-25T09:44:59;7.60;;;5.13;;
35667;SDS011;22158;59.280;17.806;2023-04-25T09:47:29;8.18;;;5.45;;
35667;SDS011;22158;59.280;17.806;2023-04-25T09:49:54;9.82;;;6.45;;
35667;SDS011;22158;59.280;17.806;2023-04-25T09:52:21;6.85;;;5.00;;
35667;SDS011;22158;59.280;17.806;2023-04-25T09:54:48;7.65;;;4.75;;
35667;SDS011;22158;59.280;17.806;2023-04-25T09:59:50;7.72;;;4.82;;
35667;SDS011;22158;59.280;17.806;2023-04-25T10:02:18;5.32;;;3.55;;
35667;SDS011;22158;59.280;17.806;2023-04-25T10:04:47;8.25;;;3.75;;
35667;SDS011;22158;59.280;17.806;2023-04-25T10:09:42;6.53;;;4.05;;
35667;SDS011;22158;59.280;17.806;2023-04-25T10:12:12;7.05;;;4.47;;
35667;SDS011;22158;59.280;17.806;2023-04-25T10:14:37;6.18;;;4.57;;
35667;SDS011;22158;59.280;17.806;2023-04-25T10:17:05;9.48;;;4.78;;
35667;SDS011;22158;59.280;17.806;2023-04-25T10:19:31;6.82;;;4.15;;
35667;SDS011;22158;59.280;17.806;2023-04-25T10:22:03;9.05;;;4.45;;
35667;SDS011;22158;59.280;17.806;2023-04-25T10:24:35;9.38;;;4.68;;
35667;SDS011;22158;59.280;17.806;2023-04-25T10:27:02;7.25;;;5.18;;
35667;SDS011;22158;59.280;17.806;2023-04-25T10:29:27;8.63;;;5.18;;
35667;SDS011;22158;59.280;17.806;2023-04-25T10:31:53;6.03;;;4.22;;
35667;SDS011;22158;59.280;17.806;2023-04-25T10:34:19;7.32;;;4.55;;
35667;SDS011;22158;59.280;17.806;2023-04-25T10:36:51;8.18;;;5.13;;
35667;SDS011;22158;59.280;17.806;2023-04-25T10:39:21;6.85;;;4.75;;
35667;SDS011;22158;59.280;17.806;2023-04-25T10:41:53;10.88;;;4.22;;
35667;SDS011;22158;59.280;17.806;2023-04-25T10:44:22;5.82;;;4.25;;
35667;SDS011;22158;59.280;17.806;2023-04-25T10:46:51;6.40;;;3.88;;
35667;SDS011;22158;59.280;17.806;2023-04-25T10:49:33;5.05;;;3.65;;
35667;SDS011;22158;59.280;17.806;2023-04-25T11:00:16;4.35;;;3.47;;
35667;SDS011;22158;59.280;17.806;2023-04-25T11:02:45;5.68;;;3.53;;
35667;SDS011;22158;59.280;17.806;2023-04-25T11:07:53;4.57;;;3.13;;
35667;SDS011;22158;59.280;17.806;2023-04-25T11:10:24;7.82;;;3.33;;
35667;SDS011;22158;59.280;17.806;2023-04-25T11:12:54;5.07;;;3.25;;
35667;SDS011;22158;59.280;17.806;2023-04-25T11:15:20;4.40;;;3.22;;
35667;SDS011;22158;59.280;17.806;2023-04-25T11:17:46;4.85;;;3.50;;
35667;SDS011;22158;59.280;17.806;2023-04-25T11:20:12;5.15;;;3.22;;
35667;SDS011;22158;59.280;17.806;2023-04-25T11:22:38;7.63;;;3.97;;
35667;SDS011;22158;59.280;17.806;2023-04-25T11:25:08;4.70;;;3.47;;
35667;SDS011;22158;59.280;17.806;2023-04-25T11:27:37;5.10;;;3.25;;
35667;SDS011;22158;59.280;17.806;2023-04-25T11:30:12;5.95;;;4.20;;
35667;SDS011;22158;59.280;17.806;2023-04-25T11:32:40;7.53;;;4.35;;
35667;SDS011;22158;59.280;17.806;2023-04-25T11:35:07;4.60;;;3.08;;
35667;SDS011;22158;59.280;17.806;2023-04-25T11:37:33;4.10;;;3.33;;
35667;SDS011;22158;59.280;17.806;2023-04-25T11:39:59;6.13;;;3.50;;
35667;SDS011;22158;59.280;17.806;2023-04-25T11:42:25;5.68;;;3.40;;
35667;SDS011;22158;59.280;17.806;2023-04-25T11:44:51;6.90;;;3.72;;
35667;SDS011;22158;59.280;17.806;2023-04-25T11:47:17;5.53;;;3.25;;
35667;SDS011;22158;59.280;17.806;2023-04-25T11:49:42;9.18;;;4.50;;
35667;SDS011;22158;59.280;17.806;2023-04-25T11:52:08;4.32;;;3.10;;
35667;SDS011;22158;59.280;17.806;2023-04-25T11:54:37;6.60;;;4.32;;
35667;SDS011;22158;59.280;17.806;2023-04-25T11:57:03;5.97;;;4.05;;
35667;SDS011;22158;59.280;17.806;2023-04-25T11:59:29;5.75;;;4.00;;
35667;SDS011;22158;59.280;17.806;2023-04-25T12:01:55;8.77;;;5.32;;
35667;SDS011;22158;59.280;17.806;2023-04-25T12:04:23;7.75;;;5.03;;
35667;SDS011;22158;59.280;17.806;2023-04-25T12:06:53;6.68;;;4.25;;
35667;SDS011;22158;59.280;17.806;2023-04-25T12:09:20;6.03;;;4.13;;
35667;SDS011;22158;59.280;17.806;2023-04-25T12:11:54;5.80;;;3.88;;
35667;SDS011;22158;59.280;17.806;2023-04-25T12:14:24;5.88;;;4.30;;
35667;SDS011;22158;59.280;17.806;2023-04-25T12:16:57;7.97;;;4.93;;
35667;SDS011;22158;59.280;17.806;2023-04-25T12:19:24;10.40;;;4.88;;
35667;SDS011;22158;59.280;17.806;2023-04-25T12:21:50;9.75;;;4.57;;
35667;SDS011;22158;59.280;17.806;2023-04-25T12:26:47;7.55;;;5.10;;
35667;SDS011;22158;59.280;17.806;2023-04-25T12:29:20;7.55;;;4.90;;
35667;SDS011;22158;59.280;17.806;2023-04-25T12:31:47;6.38;;;3.88;;
35667;SDS011;22158;59.280;17.806;2023-04-25T12:34:13;6.28;;;3.83;;
35667;SDS011;22158;59.280;17.806;2023-04-25T12:36:39;8.85;;;4.28;;
35667;SDS011;22158;59.280;17.806;2023-04-25T12:39:05;5.65;;;4.07;;
35667;SDS011;22158;59.280;17.806;2023-04-25T12:41:31;9.40;;;4.63;;
35667;SDS011;22158;59.280;17.806;2023-04-25T12:43:57;4.80;;;3.83;;
35667;SDS011;22158;59.280;17.806;2023-04-25T12:46:22;5.05;;;3.80;;
35667;SDS011;22158;59.280;17.806;2023-04-25T12:48:48;5.55;;;3.70;;
35667;SDS011;22158;59.280;17.806;2023-04-25T12:51:14;5.45;;;3.25;;
35667;SDS011;22158;59.280;17.806;2023-04-25T12:53:40;6.68;;;3.97;;
35667;SDS011;22158;59.280;17.806;2023-04-25T12:56:06;6.38;;;4.00;;
35667;SDS011;22158;59.280;17.806;2023-04-25T12:58:32;5.30;;;4.43;;
35667;SDS011;22158;59.280;17.806;2023-04-25T13:00:58;5.93;;;4.05;;
35667;SDS011;22158;59.280;17.806;2023-04-25T13:03:24;5.20;;;3.67;;
35667;SDS011;22158;59.280;17.806;2023-04-25T13:05:50;5.35;;;3.60;;
35667;SDS011;22158;59.280;17.806;2023-04-25T13:08:17;5.00;;;3.72;;
35667;SDS011;22158;59.280;17.806;2023-04-25T13:10:43;5.43;;;3.40;;
35667;SDS011;22158;59.280;17.806;2023-04-25T13:13:09;6.95;;;3.90;;
35667;SDS011;22158;59.280;17.806;2023-04-25T13:15:35;5.25;;;3.30;;
35667;SDS011;22158;59.280;17.806;2023-04-25T13:18:01;4.95;;;3.72;;
35667;SDS011;22158;59.280;17.806;2023-04-25T13:20:28;6.00;;;3.80;;
35667;SDS011;22158;59.280;17.806;2023-04-25T13:22:54;5.47;;;3.85;;
35667;SDS011;22158;59.280;17.806;2023-04-25T13:25:20;5.15;;;3.38;;
35667;SDS011;22158;59.280;17.806;2023-04-25T13:27:46;6.20;;;3.72;;
35667;SDS011;22158;59.280;17.806;2023-04-25T13:30:12;5.90;;;3.42;;
35667;SDS011;22158;59.280;17.806;2023-04-25T13:32:38;5.07;;;3.60;;
35667;SDS011;22158;59.280;17.806;2023-04-25T13:35:05;7.95;;;3.92;;
35667;SDS011;22158;59.280;17.806;2023-04-25T13:37:32;9.80;;;4.63;;
35667;SDS011;22158;59.280;17.806;2023-04-25T13:40:08;6.68;;;4.07;;
35667;SDS011;22158;59.280;17.806;2023-04-25T13:42:36;6.07;;;3.78;;
35667;SDS011;22158;59.280;17.806;2023-04-25T13:45:03;6.60;;;4.03;;
35667;SDS011;22158;59.280;17.806;2023-04-25T13:47:32;6.38;;;3.80;;
35667;SDS011;22158;59.280;17.806;2023-04-25T13:49:58;7.07;;;3.92;;
35667;SDS011;22158;59.280;17.806;2023-04-25T13:52:24;6.07;;;4.20;;
35667;SDS011;22158;59.280;17.806;2023-04-25T13:54:50;7.45;;;5.03;;
35667;SDS011;22158;59.280;17.806;2023-04-25T13:57:16;7.18;;;4.70;;
35667;SDS011;22158;59.280;17.806;2023-04-25T13:59:42;6.97;;;4.32;;
35667;SDS011;22158;59.280;17.806;2023-04-25T14:02:08;6.80;;;4.25;;
35667;SDS011;22158;59.280;17.806;2023-04-25T14:04:34;4.43;;;3.35;;
35667;SDS011;22158;59.280;17.806;2023-04-25T14:06:59;7.00;;;4.15;;
35667;SDS011;22158;59.280;17.806;2023-04-25T14:09:27;16.27;;;5.25;;
35667;SDS011;22158;59.280;17.806;2023-04-25T14:11:52;7.53;;;3.80;;
35667;SDS011;22158;59.280;17.806;2023-04-25T14:14:18;9.35;;;4.13;;
35667;SDS011;22158;59.280;17.806;2023-04-25T14:16:46;9.23;;;4.35;;
35667;SDS011;22158;59.280;17.806;2023-04-25T14:19:15;6.20;;;4.18;;
35667;SDS011;22158;59.280;17.806;2023-04-25T14:21:41;7.93;;;4.78;;
35667;SDS011;22158;59.280;17.806;2023-04-25T14:24:08;7.13;;;4.75;;
35667;SDS011;22158;59.280;17.806;2023-04-25T14:26:34;7.18;;;4.25;;
35667;SDS011;22158;59.280;17.806;2023-04-25T14:29:03;8.98;;;5.60;;
35667;SDS011;22158;59.280;17.806;2023-04-25T14:31:30;6.43;;;3.50;;
35667;SDS011;22158;59.280;17.806;2023-04-25T14:33:55;7.82;;;3.97;;
35667;SDS011;22158;59.280;17.806;2023-04-25T14:36:21;7.72;;;4.22;;
35667;SDS011;22158;59.280;17.806;2023-04-25T14:38:47;6.90;;;4.32;;
35667;SDS011;22158;59.280;17.806;2023-04-25T14:41:13;7.00;;;4.85;;
35667;SDS011;22158;59.280;17.806;2023-04-25T14:43:38;8.10;;;4.35;;
35667;SDS011;22158;59.280;17.806;2023-04-25T14:46:06;8.30;;;4.70;;
35667;SDS011;22158;59.280;17.806;2023-04-25T14:48:32;9.23;;;4.70;;
35667;SDS011;22158;59.280;17.806;2023-04-25T14:50:58;6.07;;;3.95;;
35667;SDS011;22158;59.280;17.806;2023-04-25T14:53:27;8.00;;;4.07;;
35667;SDS011;22158;59.280;17.806;2023-04-25T14:55:53;6.78;;;3.90;;
35667;SDS011;22158;59.280;17.806;2023-04-25T14:58:19;7.10;;;4.07;;
35667;SDS011;22158;59.280;17.806;2023-04-25T15:00:45;7.53;;;3.08;;
35667;SDS011;22158;59.280;17.806;2023-04-25T15:03:11;5.80;;;3.20;;
35667;SDS011;22158;59.280;17.806;2023-04-25T15:05:38;6.53;;;3.83;;
35667;SDS011;22158;59.280;17.806;2023-04-25T15:08:05;13.15;;;3.92;;
35667;SDS011;22158;59.280;17.806;2023-04-25T15:10:31;5.50;;;3.72;;
35667;SDS011;22158;59.280;17.806;2023-04-25T15:12:56;6.65;;;4.03;;
35667;SDS011;22158;59.280;17.806;2023-04-25T15:15:22;5.88;;;3.53;;
35667;SDS011;22158;59.280;17.806;2023-04-25T15:17:48;5.85;;;3.50;;
35667;SDS011;22158;59.280;17.806;2023-04-25T15:20:15;5.50;;;3.53;;
35667;SDS011;22158;59.280;17.806;2023-04-25T15:22:41;10.23;;;4.30;;
35667;SDS011;22158;59.280;17.806;2023-04-25T15:25:09;7.10;;;3.80;;
35667;SDS011;22158;59.280;17.806;2023-04-25T15:27:36;7.93;;;4.32;;
35667;SDS011;22158;59.280;17.806;2023-04-25T15:30:06;7.25;;;3.78;;
35667;SDS011;22158;59.280;17.806;2023-04-25T15:32:32;6.53;;;3.58;;
35667;SDS011;22158;59.280;17.806;2023-04-25T15:34:58;8.32;;;4.40;;
35667;SDS011;22158;59.280;17.806;2023-04-25T15:37:25;7.53;;;4.15;;
35667;SDS011;22158;59.280;17.806;2023-04-25T15:42:37;6.65;;;3.80;;
35667;SDS011;22158;59.280;17.806;2023-04-25T15:45:05;6.27;;;3.73;;
35667;SDS011;22158;59.280;17.806;2023-04-25T15:47:33;5.90;;;3.97;;
35667;SDS011;22158;59.280;17.806;2023-04-25T15:49:59;6.43;;;4.13;;
35667;SDS011;22158;59.280;17.806;2023-04-25T15:52:25;9.15;;;3.70;;
35667;SDS011;22158;59.280;17.806;2023-04-25T15:54:51;5.43;;;3.33;;
35667;SDS011;22158;59.280;17.806;2023-04-25T15:57:17;7.50;;;3.33;;
35667;SDS011;22158;59.280;17.806;2023-04-25T15:59:43;5.60;;;3.60;;
35667;SDS011;22158;59.280;17.806;2023-04-25T16:02:08;5.13;;;2.92;;
35667;SDS011;22158;59.280;17.806;2023-04-25T16:04:34;5.60;;;3.50;;
35667;SDS011;22158;59.280;17.806;2023-04-25T16:07:00;6.93;;;3.60;;
35667;SDS011;22158;59.280;17.806;2023-04-25T16:09:27;5.88;;;4.22;;
35667;SDS011;22158;59.280;17.806;2023-04-25T16:11:53;12.38;;;6.30;;
35667;SDS011;22158;59.280;17.806;2023-04-25T16:14:38;7.03;;;4.00;;
35667;SDS011;22158;59.280;17.806;2023-04-25T16:17:03;7.68;;;4.70;;
35667;SDS011;22158;59.280;17.806;2023-04-25T16:19:29;7.07;;;4.70;;
35667;SDS011;22158;59.280;17.806;2023-04-25T16:21:55;7.60;;;4.93;;
35667;SDS011;22158;59.280;17.806;2023-04-25T16:24:21;8.35;;;5.50;;
35667;SDS011;22158;59.280;17.806;2023-04-25T16:26:46;9.73;;;5.68;;
35667;SDS011;22158;59.280;17.806;2023-04-25T16:29:12;6.80;;;4.43;;
35667;SDS011;22158;59.280;17.806;2023-04-25T16:31:39;10.18;;;4.70;;
35667;SDS011;22158;59.280;17.806;2023-04-25T16:34:05;9.85;;;5.82;;
35667;SDS011;22158;59.280;17.806;2023-04-25T16:36:31;7.90;;;5.05;;
35667;SDS011;22158;59.280;17.806;2023-04-25T16:38:57;9.27;;;5.43;;
35667;SDS011;22158;59.280;17.806;2023-04-25T16:41:25;9.00;;;5.82;;
35667;SDS011;22158;59.280;17.806;2023-04-25T16:43:51;10.95;;;5.13;;
35667;SDS011;22158;59.280;17.806;2023-04-25T16:46:17;9.40;;;5.30;;
35667;SDS011;22158;59.280;17.806;2023-04-25T16:48:43;8.52;;;5.25;;
35667;SDS011;22158;59.280;17.806;2023-04-25T16:51:12;8.20;;;5.57;;
35667;SDS011;22158;59.280;17.806;2023-04-25T16:53:37;8.48;;;5.55;;
35667;SDS011;22158;59.280;17.806;2023-04-25T16:56:03;9.63;;;6.32;;
35667;SDS011;22158;59.280;17.806;2023-04-25T16:58:31;9.13;;;5.72;;
35667;SDS011;22158;59.280;17.806;2023-04-25T17:00:57;7.53;;;5.18;;
35667;SDS011;22158;59.280;17.806;2023-04-25T17:03:23;11.90;;;5.32;;
35667;SDS011;22158;59.280;17.806;2023-04-25T17:05:49;9.82;;;5.40;;
35667;SDS011;22158;59.280;17.806;2023-04-25T17:08:15;11.57;;;5.93;;
35667;SDS011;22158;59.280;17.806;2023-04-25T17:10:41;12.20;;;6.05;;
35667;SDS011;22158;59.280;17.806;2023-04-25T17:13:06;9.93;;;5.88;;
35667;SDS011;22158;59.280;17.806;2023-04-25T17:15:32;9.55;;;5.55;;
35667;SDS011;22158;59.280;17.806;2023-04-25T17:17:58;9.98;;;6.32;;
35667;SDS011;22158;59.280;17.806;2023-04-25T17:20:24;10.90;;;5.90;;
35667;SDS011;22158;59.280;17.806;2023-04-25T17:22:53;9.60;;;6.57;;
35667;SDS011;22158;59.280;17.806;2023-04-25T17:25:18;9.98;;;6.55;;
35667;SDS011;22158;59.280;17.806;2023-04-25T17:27:44;10.13;;;6.43;;
35667;SDS011;22158;59.280;17.806;2023-04-25T17:30:10;11.95;;;7.47;;
35667;SDS011;22158;59.280;17.806;2023-04-25T17:32:36;14.15;;;7.57;;
35667;SDS011;22158;59.280;17.806;2023-04-25T17:35:02;11.00;;;7.10;;
35667;SDS011;22158;59.280;17.806;2023-04-25T17:37:29;12.80;;;6.05;;
35667;SDS011;22158;59.280;17.806;2023-04-25T17:39:54;10.57;;;6.72;;
35667;SDS011;22158;59.280;17.806;2023-04-25T17:42:20;9.93;;;7.00;;
35667;SDS011;22158;59.280;17.806;2023-04-25T17:44:46;13.52;;;7.85;;
35667;SDS011;22158;59.280;17.806;2023-04-25T17:47:11;17.10;;;8.98;;
35667;SDS011;22158;59.280;17.806;2023-04-25T17:49:37;11.60;;;7.95;;
35667;SDS011;22158;59.280;17.806;2023-04-25T17:52:03;13.25;;;8.57;;
35667;SDS011;22158;59.280;17.806;2023-04-25T17:54:29;15.50;;;8.90;;
35667;SDS011;22158;59.280;17.806;2023-04-25T17:56:54;13.00;;;8.35;;
35667;SDS011;22158;59.280;17.806;2023-04-25T17:59:20;13.25;;;8.30;;
35667;SDS011;22158;59.280;17.806;2023-04-25T18:01:46;14.55;;;8.45;;
35667;SDS011;22158;59.280;17.806;2023-04-25T18:04:12;15.25;;;8.63;;
35667;SDS011;22158;59.280;17.806;2023-04-25T18:06:38;15.15;;;9.23;;
35667;SDS011;22158;59.280;17.806;2023-04-25T18:09:04;16.92;;;10.43;;
35667;SDS011;22158;59.280;17.806;2023-04-25T18:11:48;18.98;;;11.73;;
35667;SDS011;22158;59.280;17.806;2023-04-25T18:14:17;16.90;;;10.00;;
35667;SDS011;22158;59.280;17.806;2023-04-25T18:16:44;13.95;;;9.52;;
35667;SDS011;22158;59.280;17.806;2023-04-25T18:19:12;17.60;;;9.38;;
35667;SDS011;22158;59.280;17.806;2023-04-25T18:21:45;22.10;;;11.55;;
35667;SDS011;22158;59.280;17.806;2023-04-25T18:24:11;20.77;;;10.27;;
35667;SDS011;22158;59.280;17.806;2023-04-25T18:26:38;15.35;;;9.80;;
35667;SDS011;22158;59.280;17.806;2023-04-25T18:29:04;20.55;;;9.82;;
35667;SDS011;22158;59.280;17.806;2023-04-25T18:31:33;18.55;;;10.35;;
35667;SDS011;22158;59.280;17.806;2023-04-25T18:33:59;18.08;;;9.70;;
35667;SDS011;22158;59.280;17.806;2023-04-25T18:36:25;13.43;;;9.20;;
35667;SDS011;22158;59.280;17.806;2023-04-25T18:38:52;21.77;;;10.52;;
35667;SDS011;22158;59.280;17.806;2023-04-25T18:41:21;14.95;;;9.02;;
35667;SDS011;22158;59.280;17.806;2023-04-25T18:43:48;15.77;;;8.00;;
35667;SDS011;22158;59.280;17.806;2023-04-25T18:46:18;13.40;;;9.32;;
35667;SDS011;22158;59.280;17.806;2023-04-25T18:48:46;14.52;;;9.93;;
35667;SDS011;22158;59.280;17.806;2023-04-25T18:51:12;14.45;;;8.70;;
35667;SDS011;22158;59.280;17.806;2023-04-25T18:53:38;18.88;;;9.18;;
35667;SDS011;22158;59.280;17.806;2023-04-25T18:56:05;13.68;;;8.60;;
35667;SDS011;22158;59.280;17.806;2023-04-25T18:58:31;10.18;;;7.68;;
35667;SDS011;22158;59.280;17.806;2023-04-25T19:00:59;15.30;;;9.27;;
35667;SDS011;22158;59.280;17.806;2023-04-25T19:03:26;19.33;;;9.93;;
35667;SDS011;22158;59.280;17.806;2023-04-25T19:05:52;19.98;;;9.63;;
35667;SDS011;22158;59.280;17.806;2023-04-25T19:08:18;15.65;;;9.15;;
35667;SDS011;22158;59.280;17.806;2023-04-25T19:10:45;12.85;;;8.70;;
35667;SDS011;22158;59.280;17.806;2023-04-25T19:13:11;14.88;;;9.70;;
35667;SDS011;22158;59.280;17.806;2023-04-25T19:15:37;15.88;;;9.27;;
35667;SDS011;22158;59.280;17.806;2023-04-25T19:18:03;14.38;;;7.70;;
35667;SDS011;22158;59.280;17.806;2023-04-25T19:20:29;17.13;;;9.55;;
35667;SDS011;22158;59.280;17.806;2023-04-25T19:22:55;15.52;;;8.20;;
35667;SDS011;22158;59.280;17.806;2023-04-25T19:25:21;12.63;;;8.77;;
35667;SDS011;22158;59.280;17.806;2023-04-25T19:27:48;12.20;;;7.63;;
35667;SDS011;22158;59.280;17.806;2023-04-25T19:30:15;15.43;;;7.60;;
35667;SDS011;22158;59.280;17.806;2023-04-25T19:32:40;16.30;;;9.27;;
35667;SDS011;22158;59.280;17.806;2023-04-25T19:35:06;8.90;;;6.70;;
35667;SDS011;22158;59.280;17.806;2023-04-25T19:37:33;17.67;;;7.97;;
35667;SDS011;22158;59.280;17.806;2023-04-25T19:39:59;11.63;;;7.88;;
35667;SDS011;22158;59.280;17.806;2023-04-25T19:42:25;15.13;;;7.65;;
35667;SDS011;22158;59.280;17.806;2023-04-25T19:44:51;14.93;;;8.23;;
35667;SDS011;22158;59.280;17.806;2023-04-25T19:47:17;15.52;;;8.32;;
35667;SDS011;22158;59.280;17.806;2023-04-25T19:49:43;13.77;;;8.50;;
35667;SDS011;22158;59.280;17.806;2023-04-25T19:52:08;15.75;;;9.40;;